createdAt,value
2022-10-05T00:00:48.310Z,13.35
2022-10-05T00:03:16.032Z,13.35
2022-10-05T00:05:45.882Z,13.37
2022-10-05T00:08:34.370Z,13.41
2022-10-05T00:11:02.529Z,13.45
2022-10-05T00:13:31.522Z,13.49
2022-10-05T00:16:20.769Z,13.53
2022-10-05T00:18:50.752Z,13.50
2022-10-05T00:21:25.470Z,13.50
2022-10-05T00:24:20.280Z,13.45
2022-10-05T00:26:52.726Z,13.41
2022-10-05T00:29:25.203Z,13.42
2022-10-05T00:31:53.101Z,13.43
2022-10-05T00:34:20.830Z,13.46
2022-10-05T00:36:49.044Z,13.44
2022-10-05T00:39:18.421Z,13.46
2022-10-05T00:41:55.101Z,13.47
2022-10-05T00:44:34.171Z,13.47
2022-10-05T00:47:11.111Z,13.43
2022-10-05T00:50:04.257Z,13.50
2022-10-05T00:52:51.375Z,13.55
2022-10-05T00:55:51.663Z,13.55
2022-10-05T00:58:28.912Z,13.52
2022-10-05T01:01:17.626Z,13.58
2022-10-05T01:03:54.517Z,13.62
2022-10-05T01:07:00.934Z,13.70
2022-10-05T01:09:53.713Z,13.75
2022-10-05T01:12:30.751Z,13.81
2022-10-05T01:15:07.718Z,13.82
2022-10-05T01:17:49.732Z,13.82
2022-10-05T01:20:17.386Z,13.83
2022-10-05T01:23:15.764Z,13.90
2022-10-05T01:26:04.765Z,13.91
2022-10-05T01:28:38.327Z,13.92
2022-10-05T01:31:35.408Z,13.98
2022-10-05T01:34:13.386Z,14.01
2022-10-05T01:36:52.286Z,14.01
2022-10-05T01:39:57.137Z,14.05
2022-10-05T01:42:30.901Z,14.05
2022-10-05T01:45:19.977Z,14.06
2022-10-05T01:47:53.123Z,14.07
2022-10-05T01:51:03.874Z,14.06
2022-10-05T01:53:46.763Z,14.04
2022-10-05T01:56:26.515Z,14.01
2022-10-05T01:58:56.979Z,14.00
2022-10-05T02:01:37.102Z,14.00
2022-10-05T02:04:35.601Z,13.95
2022-10-05T02:07:10.775Z,13.95
2022-10-05T02:09:55.545Z,13.98
2022-10-05T02:12:28.500Z,13.95
2022-10-05T02:15:03.265Z,13.95
2022-10-05T02:17:59.303Z,13.92
2022-10-05T02:20:32.586Z,13.87
2022-10-05T02:23:05.268Z,13.89
2022-10-05T02:25:39.543Z,13.91
2022-10-05T02:28:15.565Z,13.85
2022-10-05T02:30:50.590Z,13.82
2022-10-05T02:33:33.266Z,13.78
2022-10-05T02:36:17.328Z,13.70
2022-10-05T02:39:02.670Z,13.64
2022-10-05T02:41:42.047Z,13.64
2022-10-05T02:44:55.338Z,13.62
2022-10-05T02:47:42.159Z,13.61
2022-10-05T02:50:39.521Z,13.55
2022-10-05T02:53:36.009Z,13.49
2022-10-05T02:56:15.311Z,13.40
2022-10-05T02:59:28.251Z,13.36
2022-10-05T03:02:05.141Z,13.35
2022-10-05T03:04:45.347Z,13.31
2022-10-05T03:07:31.846Z,13.24
2022-10-05T03:10:12.451Z,13.26
2022-10-05T03:13:10.871Z,13.24
2022-10-05T03:16:06.285Z,13.26
2022-10-05T03:18:59.787Z,13.27
2022-10-05T03:21:52.069Z,13.29
2022-10-05T03:24:38.393Z,13.32
2022-10-05T03:27:14.779Z,13.39
2022-10-05T03:29:42.592Z,13.38
2022-10-05T03:32:27.663Z,13.47
2022-10-05T03:35:33.032Z,13.49
2022-10-05T03:38:21.037Z,13.43
2022-10-05T03:40:56.063Z,13.50
2022-10-05T03:43:57.556Z,13.49
2022-10-05T03:46:31.690Z,13.44
2022-10-05T03:49:14.869Z,13.43
2022-10-05T03:51:47.235Z,13.39
2022-10-05T03:54:25.030Z,13.41
2022-10-05T03:56:56.271Z,13.37
2022-10-05T03:59:42.325Z,13.36
2022-10-05T04:02:24.495Z,13.37
2022-10-05T04:04:59.543Z,13.32
2022-10-05T04:07:35.813Z,13.27
2022-10-05T04:10:10.720Z,13.29
2022-10-05T04:12:46.327Z,13.30
2022-10-05T04:15:54.702Z,13.33
2022-10-05T04:18:29.076Z,13.32
2022-10-05T04:21:08.476Z,13.33
2022-10-05T04:23:43.136Z,13.32
2022-10-05T04:26:25.185Z,13.30
2022-10-05T04:29:15.844Z,13.21
2022-10-05T04:31:47.458Z,13.17
2022-10-05T04:34:34.146Z,13.12
2022-10-05T04:37:08.148Z,13.10
2022-10-05T04:39:36.009Z,13.06
2022-10-05T04:42:12.328Z,13.05
2022-10-05T04:44:59.070Z,13.02
2022-10-05T04:47:56.139Z,12.94
2022-10-05T04:50:46.287Z,12.90
2022-10-05T04:53:22.454Z,12.87
2022-10-05T04:56:09.152Z,12.92
2022-10-05T04:59:04.049Z,12.91
2022-10-05T05:01:48.270Z,12.90
2022-10-05T05:04:52.050Z,12.98
2022-10-05T05:07:42.315Z,13.03
2022-10-05T05:10:43.919Z,13.06
2022-10-05T05:13:30.238Z,13.01
2022-10-05T05:16:19.266Z,13.09
2022-10-05T05:18:54.492Z,13.18
2022-10-05T05:22:00.368Z,13.25
2022-10-05T05:24:46.058Z,13.31
2022-10-05T05:27:32.423Z,13.36
2022-10-05T05:30:17.076Z,13.46
2022-10-05T05:32:53.164Z,13.50
2022-10-05T05:35:45.639Z,13.49
2022-10-05T05:38:27.665Z,13.59
2022-10-05T05:41:12.790Z,13.62
2022-10-05T05:44:13.325Z,13.62
2022-10-05T05:47:03.415Z,13.63
2022-10-05T05:50:01.785Z,13.63
2022-10-05T05:52:47.273Z,13.68
2022-10-05T05:55:30.212Z,13.72
2022-10-05T05:58:17.714Z,13.76
2022-10-05T06:00:59.064Z,13.76
2022-10-05T06:03:40.140Z,13.79
2022-10-05T06:06:14.234Z,13.79
2022-10-05T06:08:47.857Z,13.89
2022-10-05T06:11:32.078Z,14.02
2022-10-05T06:14:05.439Z,14.15
2022-10-05T06:17:15.806Z,14.20
2022-10-05T06:19:46.256Z,14.15
2022-10-05T06:22:29.244Z,14.12
2022-10-05T06:25:12.008Z,14.06
2022-10-05T06:28:09.501Z,14.10
2022-10-05T06:30:57.253Z,14.05
2022-10-05T06:33:33.972Z,14.09
2022-10-05T06:36:18.266Z,14.20
2022-10-05T06:39:07.171Z,14.24
2022-10-05T06:42:03.765Z,14.31
2022-10-05T06:45:08.194Z,14.32
2022-10-05T06:48:12.034Z,14.35
2022-10-05T06:51:17.078Z,14.45
2022-10-05T06:54:19.738Z,14.54
2022-10-05T06:57:16.918Z,14.59
2022-10-05T06:59:57.275Z,14.67
2022-10-05T07:02:54.501Z,14.81
2022-10-05T07:05:52.087Z,14.89
2022-10-05T07:08:37.306Z,14.92
2022-10-05T07:11:17.777Z,14.87
2022-10-05T07:13:57.658Z,14.79
2022-10-05T07:16:53.036Z,14.78
2022-10-05T07:20:04.019Z,14.74
2022-10-05T07:22:50.122Z,14.70
2022-10-05T07:25:27.882Z,14.74
2022-10-05T07:28:34.765Z,14.79
2022-10-05T07:31:05.674Z,14.91
2022-10-05T07:33:38.312Z,15.10
2022-10-05T07:37:10.224Z,15.42
2022-10-05T07:39:59.498Z,15.53
2022-10-05T07:42:46.061Z,15.60
2022-10-05T07:45:33.751Z,15.86
2022-10-05T07:48:23.480Z,16.03
2022-10-05T07:51:14.727Z,16.19
2022-10-05T07:54:06.678Z,16.21
2022-10-05T07:56:41.705Z,16.19
2022-10-05T07:59:36.481Z,16.17
2022-10-05T08:02:34.197Z,16.30
2022-10-05T08:05:17.386Z,16.43
2022-10-05T08:07:48.072Z,16.56
2022-10-05T08:10:30.287Z,16.71
2022-10-05T08:13:25.706Z,16.85
2022-10-05T08:15:57.889Z,16.81
2022-10-05T08:18:46.297Z,16.72
2022-10-05T08:21:16.366Z,16.68
2022-10-05T08:24:25.968Z,16.87
2022-10-05T08:42:21.479Z,17.46
2022-10-05T09:04:11.291Z,17.73
2022-10-05T09:07:08.183Z,17.89
2022-10-05T09:10:01.397Z,18.06
2022-10-05T09:12:54.711Z,18.19
2022-10-05T09:15:56.449Z,18.21
2022-10-05T09:18:29.883Z,18.30
2022-10-05T09:21:25.109Z,18.34
2022-10-05T09:24:13.221Z,18.42
2022-10-05T09:26:42.747Z,18.47
2022-10-05T09:29:53.418Z,18.60
2022-10-05T09:32:40.097Z,18.70
2022-10-05T09:35:26.450Z,18.62
2022-10-05T09:38:08.713Z,18.58
2022-10-05T09:40:54.266Z,18.70
2022-10-05T09:43:45.881Z,18.63
2022-10-05T09:46:51.926Z,18.60
2022-10-05T09:49:25.512Z,18.57
2022-10-05T09:52:32.061Z,18.70
2022-10-05T09:55:20.552Z,18.73
2022-10-05T09:57:54.439Z,18.75
2022-10-05T10:00:38.752Z,18.86
2022-10-05T10:03:43.220Z,18.94
2022-10-05T10:40:20.530Z,20.12
2022-10-05T10:42:54.133Z,20.03
2022-10-05T10:45:45.635Z,19.98
2022-10-05T10:48:19.126Z,20.04
2022-10-05T10:51:03.773Z,20.16
2022-10-05T10:53:47.661Z,20.31
2022-10-05T10:56:29.162Z,20.40
2022-10-05T10:59:17.935Z,20.58
2022-10-05T11:02:15.851Z,20.80
2022-10-05T11:04:46.579Z,20.80
2022-10-05T11:07:39.244Z,20.96
2022-10-05T11:10:26.182Z,21.03
2022-10-05T11:13:08.981Z,21.03
2022-10-05T11:15:58.409Z,21.06
2022-10-05T11:19:02.463Z,21.07
2022-10-05T11:21:38.374Z,21.13
2022-10-05T11:24:38.910Z,21.22
2022-10-05T11:27:51.697Z,21.07
2022-10-05T11:30:31.603Z,21.05
2022-10-05T11:33:12.044Z,21.00
2022-10-05T11:36:09.697Z,20.97
2022-10-05T11:38:55.830Z,21.07
2022-10-05T11:41:56.014Z,21.18
2022-10-05T11:44:46.143Z,21.36
2022-10-05T11:47:39.424Z,21.51
2022-10-05T11:50:47.552Z,21.53
2022-10-05T11:53:25.547Z,21.49
2022-10-05T11:56:09.481Z,21.56
2022-10-05T11:58:57.503Z,21.61
2022-10-05T12:02:04.439Z,21.53
2022-10-05T12:04:56.896Z,21.34
2022-10-05T12:07:42.672Z,21.28
2022-10-05T12:10:43.206Z,21.34
2022-10-05T12:13:21.836Z,21.26
2022-10-05T12:15:57.690Z,21.27
2022-10-05T12:18:31.685Z,21.25
2022-10-05T12:21:22.973Z,21.31
2022-10-05T12:23:58.778Z,21.27
2022-10-05T12:26:28.398Z,21.26
2022-10-05T12:29:08.991Z,21.32
2022-10-05T12:31:50.636Z,21.30
2022-10-05T12:34:27.629Z,21.30
2022-10-05T12:37:17.519Z,21.19
2022-10-05T12:39:50.803Z,21.12
2022-10-05T12:42:30.853Z,21.23
2022-10-05T12:45:14.630Z,21.32
2022-10-05T12:47:54.062Z,21.38
2022-10-05T12:50:37.290Z,21.28
2022-10-05T12:53:23.445Z,21.16
2022-10-05T12:55:57.240Z,21.06
2022-10-05T12:58:48.741Z,21.05
2022-10-05T13:01:35.254Z,21.00
2022-10-05T13:04:34.203Z,20.96
2022-10-05T13:07:28.758Z,20.95
2022-10-05T13:10:12.146Z,20.93
2022-10-05T13:12:39.913Z,20.97
2022-10-05T13:15:07.989Z,21.03
2022-10-05T13:17:51.136Z,21.00
2022-10-05T13:21:01.581Z,20.87
2022-10-05T13:23:43.708Z,20.90
2022-10-05T13:26:17.927Z,20.95
2022-10-05T13:28:53.444Z,20.87
2022-10-05T13:31:40.858Z,20.79
2022-10-05T13:34:30.355Z,20.76
2022-10-05T13:37:34.102Z,20.74
2022-10-05T13:40:12.828Z,20.65
2022-10-05T13:42:40.681Z,20.60
2022-10-05T13:45:21.620Z,20.62
2022-10-05T13:47:55.321Z,20.53
2022-10-05T13:50:43.240Z,20.42
2022-10-05T13:53:15.602Z,20.28
2022-10-05T13:56:00.804Z,20.26
2022-10-05T13:58:48.599Z,20.22
2022-10-05T14:01:36.232Z,20.27
2022-10-05T14:04:27.460Z,20.14
2022-10-05T14:06:55.262Z,20.00
2022-10-05T14:09:34.151Z,19.91
2022-10-05T14:12:04.868Z,19.84
2022-10-05T14:14:42.515Z,19.73
2022-10-05T14:17:15.868Z,19.67
2022-10-05T14:19:46.686Z,19.64
2022-10-05T14:22:25.328Z,19.65
2022-10-05T14:24:55.567Z,19.60
2022-10-05T14:27:27.117Z,19.60
2022-10-05T14:30:01.648Z,19.61
2022-10-05T14:32:32.845Z,19.59
2022-10-05T14:35:05.371Z,19.47
2022-10-05T14:37:44.593Z,19.34
2022-10-05T14:40:26.172Z,19.31
2022-10-05T14:42:54.529Z,19.19
2022-10-05T14:45:30.150Z,19.15
2022-10-05T14:48:01.919Z,19.14
2022-10-05T14:50:31.586Z,19.12
2022-10-05T14:53:11.120Z,19.07
2022-10-05T14:55:45.030Z,19.02
2022-10-05T14:58:28.719Z,18.98
2022-10-05T15:01:07.226Z,18.94
2022-10-05T15:04:02.361Z,18.92
2022-10-05T15:06:33.150Z,18.80
2022-10-05T15:09:33.763Z,18.82
2022-10-05T15:12:03.376Z,18.82
2022-10-05T15:14:40.422Z,18.81
2022-10-05T15:17:20.800Z,18.82
2022-10-05T15:20:05.334Z,18.78
2022-10-05T15:22:42.829Z,18.70
2022-10-05T15:25:33.000Z,18.67
2022-10-05T15:28:24.277Z,18.62
2022-10-05T15:31:05.809Z,18.60
2022-10-05T15:34:08.825Z,18.62
2022-10-05T15:37:03.382Z,18.55
2022-10-05T15:39:46.615Z,18.56
2022-10-05T15:42:18.190Z,18.53
2022-10-05T15:45:07.124Z,18.52
2022-10-05T15:48:10.339Z,18.50
2022-10-05T15:50:44.080Z,18.48
2022-10-05T15:53:22.594Z,18.49
2022-10-05T15:56:22.434Z,18.45
2022-10-05T15:58:55.907Z,18.41
2022-10-05T16:01:32.250Z,18.40
2022-10-05T16:04:17.824Z,18.36
2022-10-05T16:07:16.160Z,18.30
2022-10-05T16:09:53.621Z,18.25
2022-10-05T16:12:35.469Z,18.17
2022-10-05T16:15:26.665Z,18.13
2022-10-05T16:18:00.003Z,18.11
2022-10-05T16:20:42.878Z,18.12
2022-10-05T16:23:28.527Z,18.12
2022-10-05T16:25:57.723Z,18.09
2022-10-05T16:28:58.859Z,18.03
2022-10-05T16:31:32.362Z,17.90
2022-10-05T16:34:23.487Z,17.80
2022-10-05T16:37:37.939Z,17.74
2022-10-05T16:40:19.416Z,17.77
2022-10-05T16:42:57.592Z,17.72
2022-10-05T16:45:44.706Z,17.71
2022-10-05T16:48:23.686Z,17.62
2022-10-05T16:50:55.294Z,17.59
2022-10-05T16:53:34.851Z,17.63
2022-10-05T16:56:17.542Z,17.65
2022-10-05T16:58:57.671Z,17.66
2022-10-05T17:01:50.151Z,17.63
2022-10-05T17:04:36.196Z,17.57
2022-10-05T17:07:10.856Z,17.58
2022-10-05T17:09:43.139Z,17.59
2022-10-05T17:12:52.999Z,17.60
2022-10-05T17:15:32.306Z,17.50
2022-10-05T17:18:38.424Z,17.48
2022-10-05T17:21:15.880Z,17.47
2022-10-05T17:23:56.344Z,17.48
2022-10-05T17:26:45.710Z,17.51
2022-10-05T17:29:16.041Z,17.44
2022-10-05T17:32:08.552Z,17.50
2022-10-05T17:35:02.935Z,17.45
2022-10-05T17:37:35.876Z,17.47
2022-10-05T17:40:41.491Z,17.48
2022-10-05T17:43:15.473Z,17.40
2022-10-05T17:45:43.295Z,17.33
2022-10-05T17:48:42.583Z,17.32
2022-10-05T17:51:47.367Z,17.33
2022-10-05T17:54:44.591Z,17.23
2022-10-05T17:57:18.339Z,17.17
2022-10-05T17:59:57.980Z,17.19
2022-10-05T18:02:38.684Z,17.21
2022-10-05T18:05:12.332Z,17.20
2022-10-05T18:07:42.427Z,17.16
2022-10-05T18:10:11.710Z,17.12
2022-10-05T18:12:42.018Z,17.08
2022-10-05T18:15:10.564Z,17.06
2022-10-05T18:18:36.188Z,17.10
2022-10-05T18:21:15.477Z,17.13
2022-10-05T18:24:00.402Z,17.11
2022-10-05T18:27:05.992Z,17.09
2022-10-05T18:30:03.371Z,17.06
2022-10-05T18:32:59.395Z,17.10
2022-10-05T18:35:45.983Z,17.06
2022-10-05T18:38:33.241Z,17.14
2022-10-05T18:41:09.375Z,17.12
2022-10-05T18:43:47.778Z,17.12
2022-10-05T18:46:39.755Z,17.13
2022-10-05T18:49:43.574Z,17.12
2022-10-05T18:52:53.709Z,17.13
2022-10-05T18:55:43.983Z,17.09
2022-10-05T18:58:37.794Z,17.08
2022-10-05T19:01:36.685Z,17.12
2022-10-05T19:04:14.133Z,17.13
2022-10-05T19:06:59.868Z,17.11
2022-10-05T19:09:36.125Z,17.11
2022-10-05T19:12:12.513Z,17.13
2022-10-05T19:15:00.031Z,17.10
2022-10-05T19:17:46.438Z,17.07
2022-10-05T19:20:34.122Z,17.06
2022-10-05T19:23:22.832Z,17.08
2022-10-05T19:26:19.988Z,17.04
2022-10-05T19:29:13.871Z,17.06
2022-10-05T19:31:50.348Z,17.05
2022-10-05T19:34:57.373Z,17.03
2022-10-05T19:38:15.206Z,16.98
2022-10-05T19:40:53.685Z,16.95
2022-10-05T19:43:53.708Z,16.91
2022-10-05T19:46:33.298Z,16.91
2022-10-05T19:49:01.158Z,16.89
2022-10-05T19:51:31.627Z,16.83
2022-10-05T19:54:13.878Z,16.84
2022-10-05T19:56:50.607Z,16.79
2022-10-05T19:59:25.377Z,16.73
2022-10-05T20:01:59.242Z,16.81
2022-10-05T20:04:36.099Z,16.84
2022-10-05T20:07:05.161Z,16.82
2022-10-05T20:09:59.752Z,16.85
2022-10-05T20:12:53.391Z,16.83
2022-10-05T20:15:49.008Z,16.85
2022-10-05T20:18:58.420Z,16.82
2022-10-05T20:21:40.085Z,16.82
2022-10-05T20:24:14.193Z,16.79
2022-10-05T20:27:09.542Z,16.76
2022-10-05T20:29:40.167Z,16.71
2022-10-05T20:32:13.053Z,16.71
2022-10-05T20:34:45.940Z,16.68
2022-10-05T20:37:16.593Z,16.65
2022-10-05T20:39:45.746Z,16.59
2022-10-05T20:42:14.258Z,16.56
2022-10-05T20:44:42.680Z,16.54
2022-10-05T20:47:37.889Z,16.53
2022-10-05T20:50:09.193Z,16.48
2022-10-05T20:52:38.011Z,16.46
2022-10-05T20:55:09.138Z,16.45
2022-10-05T20:58:24.805Z,16.43
2022-10-05T21:01:11.350Z,16.36
2022-10-05T21:03:39.179Z,16.38
2022-10-05T21:06:09.219Z,16.40
2022-10-05T21:08:37.224Z,16.36
2022-10-05T21:11:11.619Z,16.35
2022-10-05T21:13:44.919Z,16.33
2022-10-05T21:16:17.616Z,16.32
2022-10-05T21:18:48.010Z,16.30
2022-10-05T21:21:18.341Z,16.29
2022-10-05T21:23:51.373Z,16.32
2022-10-05T21:26:19.393Z,16.25
2022-10-05T21:28:48.819Z,16.24
2022-10-05T21:31:16.702Z,16.22
2022-10-05T21:33:45.806Z,16.21
2022-10-05T21:36:38.569Z,16.17
2022-10-05T21:39:06.722Z,16.10
2022-10-05T21:42:00.591Z,16.07
2022-10-05T21:44:28.270Z,16.03
2022-10-05T21:46:56.764Z,16.00
2022-10-05T21:49:26.771Z,15.97
2022-10-05T21:51:54.739Z,15.93
2022-10-05T21:54:23.469Z,15.88
2022-10-05T21:56:55.611Z,15.86
2022-10-05T21:59:29.731Z,15.82
2022-10-05T22:01:57.580Z,15.77
2022-10-05T22:04:25.868Z,15.75
2022-10-05T22:06:55.667Z,15.76
2022-10-05T22:09:24.740Z,15.74
2022-10-05T22:11:52.585Z,15.68
2022-10-05T22:14:20.272Z,15.64
2022-10-05T22:16:48.082Z,15.63
2022-10-05T22:19:19.294Z,15.66
2022-10-05T22:21:46.957Z,15.58
2022-10-05T22:24:14.467Z,15.54
2022-10-05T22:26:46.438Z,15.56
2022-10-05T22:29:16.174Z,15.53
2022-10-05T22:31:46.410Z,15.52
2022-10-05T22:34:14.999Z,15.50
2022-10-05T22:36:42.989Z,15.50
2022-10-05T22:39:10.702Z,15.46
2022-10-05T22:41:38.415Z,15.45
2022-10-05T22:44:06.923Z,15.41
2022-10-05T22:46:35.611Z,15.43
2022-10-05T22:49:03.309Z,15.42
2022-10-05T22:51:31.710Z,15.41
2022-10-05T22:53:59.452Z,15.37
2022-10-05T22:56:27.254Z,15.36
2022-10-05T22:58:55.233Z,15.34
2022-10-05T23:01:22.978Z,15.30
2022-10-05T23:03:51.061Z,15.29
2022-10-05T23:06:20.635Z,15.25
2022-10-05T23:08:48.481Z,15.23
2022-10-05T23:11:18.944Z,15.21
2022-10-05T23:13:46.658Z,15.16
2022-10-05T23:16:16.940Z,15.13
2022-10-05T23:18:45.363Z,15.10
2022-10-05T23:21:13.061Z,15.07
2022-10-05T23:23:43.490Z,15.05
2022-10-05T23:26:11.822Z,14.99
2022-10-05T23:28:43.154Z,14.94
2022-10-05T23:31:11.095Z,14.94
2022-10-05T23:33:38.883Z,14.89
2022-10-05T23:36:13.976Z,14.85
2022-10-05T23:38:41.873Z,14.83
2022-10-05T23:41:09.984Z,14.82
2022-10-05T23:43:38.145Z,14.78
2022-10-05T23:46:07.240Z,14.81
2022-10-05T23:49:00.433Z,14.77
2022-10-05T23:51:28.538Z,14.72
2022-10-05T23:53:56.289Z,14.71
2022-10-05T23:56:24.213Z,14.71
2022-10-05T23:59:17.497Z,14.67
